Time;durP1;ratioP1;P1;durP2;ratioP2;P2;SDS_P1;SDS_P2;PMS_P1;PMS_P2;Temp;Humidity;BMP_temperature;BMP_pressure;BME280_temperature;BME280_humidity;BME280_pressure;Samples;Min_cycle;Max_cycle;Signal;HPM_P1;HPM_P2
2021/11/06 00:02:23;;;;;;;72.30;31.88;;;;;;;12.78;79.66;100067.72;5010841;28;20014;-77
2021/11/06 00:04:48;;;;;;;64.18;31.52;;;;;;;12.94;80.00;100088.78;5010893;28;20171;-77
2021/11/06 00:07:14;;;;;;;62.20;31.23;;;;;;;12.71;79.88;100056.19;5011107;28;20523;-77
2021/11/06 00:09:39;;;;;;;65.95;31.85;;;;;;;12.95;79.61;100094.91;5010800;28;20037;-77
2021/11/06 00:12:06;;;;;;;62.58;31.15;;;;;;;13.12;79.52;100122.91;5011051;28;20029;-77
2021/11/06 00:14:31;;;;;;;58.63;28.85;;;;;;;12.99;79.32;100104.97;4993264;28;20022;-77
2021/11/06 00:16:57;;;;;;;49.97;28.88;;;;;;;13.05;79.51;100128.09;5010990;28;20028;-77
2021/11/06 00:19:23;;;;;;;62.42;28.60;;;;;;;12.06;79.35;99967.50;5010902;28;20053;-77
2021/11/06 00:21:48;;;;;;;46.35;27.63;;;;;;;12.90;79.36;100108.69;5010784;28;20466;-77
2021/11/06 00:24:14;;;;;;;56.17;29.63;;;;;;;12.52;79.33;100048.72;5012196;28;20030;-74
2021/11/06 00:26:39;;;;;;;44.08;25.95;;;;;;;12.78;79.44;100096.03;5014370;28;20030;-74
2021/11/06 00:29:05;;;;;;;56.72;26.98;;;;;;;12.97;79.44;100124.69;5014263;28;20159;-74
2021/11/06 00:31:31;;;;;;;43.42;27.08;;;;;;;12.98;79.55;100127.16;5014320;28;20096;-74
2021/11/06 00:33:56;;;;;;;57.08;27.38;;;;;;;12.63;79.42;100069.47;5014155;28;20018;-74
2021/11/06 00:36:24;;;;;;;44.80;24.70;;;;;;;13.00;79.17;100124.34;5014421;28;20142;-74
2021/11/06 00:38:50;;;;;;;76.20;23.70;;;;;;;12.79;79.35;100097.69;5014168;28;20036;-73
2021/11/06 00:41:15;;;;;;;60.65;23.73;;;;;;;12.80;79.34;100121.34;5014001;28;20018;-74
2021/11/06 00:43:40;;;;;;;58.80;21.75;;;;;;;12.75;79.31;100120.25;4996522;28;20072;-73
2021/11/06 00:46:06;;;;;;;36.75;23.25;;;;;;;12.67;79.29;100110.53;5014184;28;20034;-74
2021/11/06 00:48:31;;;;;;;29.65;19.23;;;;;;;11.82;79.13;99982.69;4996605;28;20025;-74
2021/11/06 00:50:57;;;;;;;24.42;16.95;;;;;;;12.67;78.83;100115.84;5014016;28;20022;-74
2021/11/06 00:53:22;;;;;;;20.50;16.88;;;;;;;12.21;79.11;100030.25;4996233;28;20029;-74
2021/11/06 00:55:47;;;;;;;19.40;15.15;;;;;;;12.26;78.52;100041.97;5013923;28;20018;-74
2021/11/06 00:58:14;;;;;;;16.10;12.18;;;;;;;12.52;78.22;100073.38;5013895;28;20018;-74
2021/11/06 01:00:40;;;;;;;27.05;12.23;;;;;;;12.74;78.37;100114.13;4996222;28;20040;-74
2021/11/06 01:03:05;;;;;;;18.73;13.60;;;;;;;12.62;78.19;100095.16;5013488;28;20021;-74
2021/11/06 01:05:30;;;;;;;34.08;12.00;;;;;;;12.33;78.18;100050.00;5013678;28;20014;-73
2021/11/06 01:07:56;;;;;;;39.08;13.13;;;;;;;12.63;77.70;100107.41;5013515;28;20022;-74
2021/11/06 01:10:22;;;;;;;26.23;12.77;;;;;;;12.62;78.46;100113.69;5013428;28;20033;-74
2021/11/06 01:12:47;;;;;;;32.10;12.68;;;;;;;12.58;78.29;100109.75;5013451;28;20096;-74
2021/11/06 01:15:14;;;;;;;51.53;12.90;;;;;;;12.60;78.45;100110.38;4995940;28;20021;-74
2021/11/06 01:17:40;;;;;;;40.85;12.63;;;;;;;12.52;78.26;100115.75;5013421;28;20033;-74
2021/11/06 01:20:06;;;;;;;46.55;13.45;;;;;;;12.39;78.45;100121.63;5013335;28;20100;-73
2021/11/06 01:22:32;;;;;;;29.05;9.95;;;;;;;12.01;78.43;100075.69;4995532;28;20406;-74
2021/11/06 01:24:57;;;;;;;30.08;10.82;;;;;;;12.05;78.57;100098.19;5013313;28;20022;-74
2021/11/06 01:27:23;;;;;;;21.08;9.73;;;;;;;11.80;78.90;100058.75;5013330;28;20022;-74
2021/11/06 01:29:49;;;;;;;14.65;10.25;;;;;;;12.08;78.95;100110.25;5013374;28;20107;-73
2021/11/06 01:32:15;;;;;;;14.60;8.55;;;;;;;12.06;78.88;100106.94;5013115;28;20402;-74
2021/11/06 01:34:41;;;;;;;9.93;9.02;;;;;;;12.02;78.43;100093.22;5012791;28;20025;-73
2021/11/06 01:37:06;;;;;;;11.77;9.07;;;;;;;12.10;79.12;100100.31;5012366;28;20025;-74
2021/11/06 01:39:32;;;;;;;10.98;9.25;;;;;;;12.20;78.36;100113.31;5013066;28;20565;-74
2021/11/06 01:41:58;;;;;;;10.77;9.45;;;;;;;11.79;77.85;100034.13;5013024;28;20049;-73
2021/11/06 01:44:24;;;;;;;10.40;9.40;;;;;;;12.31;78.17;100099.69;5013002;28;20029;-74
2021/11/06 01:46:51;;;;;;;8.65;7.85;;;;;;;11.98;77.76;100048.75;5013043;28;20473;-73
2021/11/06 01:49:20;;;;;;;9.23;8.43;;;;;;;12.36;77.14;100095.50;5012995;28;20533;-74
2021/11/06 01:51:46;;;;;;;9.05;8.18;;;;;;;12.41;77.41;100102.91;5012576;28;20088;-74
2021/11/06 01:54:11;;;;;;;8.55;7.65;;;;;;;12.43;76.89;100100.91;5012725;28;20049;-74
2021/11/06 01:56:37;;;;;;;9.85;8.95;;;;;;;12.44;77.24;100097.28;5012865;28;20021;-74
2021/11/06 01:59:02;;;;;;;10.60;9.55;;;;;;;12.41;76.48;100092.31;5012844;28;20026;-74
2021/11/06 02:01:28;;;;;;;10.00;9.00;;;;;;;11.96;76.74;100027.78;4994850;28;20022;-74
2021/11/06 02:03:53;;;;;;;10.30;8.80;;;;;;;12.39;76.83;100094.31;5012558;28;20418;-74
2021/11/06 02:06:19;;;;;;;13.85;12.25;;;;;;;11.86;76.87;99998.03;4994995;28;20517;-74
2021/11/06 02:08:44;;;;;;;14.68;11.00;;;;;;;12.43;77.11;100084.19;5012586;28;20101;-74
2021/11/06 02:11:10;;;;;;;29.50;14.68;;;;;;;12.33;76.55;100074.66;4994891;28;20033;-74
2021/11/06 02:13:35;;;;;;;34.85;13.57;;;;;;;12.39;76.94;100089.03;5012370;28;20030;-74
2021/11/06 02:16:01;;;;;;;22.38;13.55;;;;;;;12.37;76.67;100088.38;5012408;28;20026;-74
2021/11/06 02:18:27;;;;;;;18.40;12.75;;;;;;;12.37;76.59;100096.31;4994538;28;20026;-74
2021/11/06 02:21:05;;;;;;;21.20;13.48;;;;;;;12.31;76.52;100100.50;4994518;28;20414;-74
2021/11/06 02:23:39;;;;;;;20.60;13.70;;;;;;;11.96;76.63;100050.75;5012302;28;20029;-74
2021/11/06 02:26:07;;;;;;;14.65;12.38;;;;;;;11.79;76.75;100026.19;5012339;28;20105;-74
2021/11/06 02:28:33;;;;;;;12.05;10.85;;;;;;;12.18;76.20;100096.78;5012275;28;20550;-74
2021/11/06 02:30:58;;;;;;;11.98;10.77;;;;;;;12.18;76.32;100110.84;5012195;28;20060;-74
2021/11/06 02:33:24;;;;;;;11.75;10.55;;;;;;;12.15;76.46;100108.53;5012049;28;20056;-73
2021/11/06 02:35:49;;;;;;;12.13;10.73;;;;;;;12.14;76.42;100111.38;5011952;28;20020;-74
2021/11/06 02:38:15;;;;;;;12.18;10.98;;;;;;;12.06;76.21;100105.13;5011832;28;20407;-74
2021/11/06 02:40:40;;;;;;;14.68;12.32;;;;;;;12.15;76.18;100113.84;5012007;28;20033;-74
2021/11/06 02:43:06;;;;;;;12.35;10.55;;;;;;;12.14;75.72;100112.19;4994378;28;20038;-73
2021/11/06 02:45:32;;;;;;;11.32;9.93;;;;;;;12.12;75.76;100116.00;4994198;28;20084;-73
2021/11/06 02:47:58;;;;;;;11.35;10.15;;;;;;;11.97;75.97;100094.75;5011438;28;20025;-74
2021/11/06 02:50:24;;;;;;;11.90;10.68;;;;;;;12.11;75.84;100128.41;5012062;28;20033;-74
2021/11/06 02:52:49;;;;;;;10.27;9.27;;;;;;;12.12;75.70;100130.06;5011955;28;20426;-74
2021/11/06 02:55:15;;;;;;;10.60;9.60;;;;;;;12.14;75.72;100135.19;5011778;28;20088;-74
2021/11/06 02:57:40;;;;;;;11.10;10.10;;;;;;;12.12;75.70;100130.06;4993892;28;20029;-73
2021/11/06 03:00:09;;;;;;;9.82;9.00;;;;;;;12.15;75.07;100124.44;5011713;28;20097;-74
2021/11/06 03:02:35;;;;;;;10.10;9.10;;;;;;;12.16;74.71;100130.53;5011593;28;20032;-74
2021/11/06 03:05:06;;;;;;;9.90;8.98;;;;;;;12.15;74.77;100144.78;5011696;28;20030;-74
2021/11/06 03:07:33;;;;;;;10.93;9.13;;;;;;;11.77;74.98;100097.78;4993971;28;20018;-74
2021/11/06 03:09:58;;;;;;;10.88;9.48;;;;;;;11.93;75.12;100119.91;5011573;28;20026;-74
2021/11/06 03:12:25;;;;;;;10.65;9.65;;;;;;;11.69;74.83;100086.38;5011652;28;20033;-74
2021/11/06 03:14:51;;;;;;;9.90;8.95;;;;;;;11.70;75.01;100088.88;4993854;28;20410;-73
2021/11/06 03:17:17;;;;;;;10.75;9.48;;;;;;;12.08;74.64;100171.94;5011102;28;20022;-73
2021/11/06 03:19:42;;;;;;;12.25;10.27;;;;;;;12.09;74.93;100170.94;5011560;28;20505;-74
2021/11/06 03:22:10;;;;;;;10.55;9.52;;;;;;;12.09;75.17;100173.59;4993808;28;20018;-74
2021/11/06 03:24:35;;;;;;;10.05;9.00;;;;;;;12.08;75.25;100171.13;5011661;28;20119;-73
2021/11/06 03:27:01;;;;;;;11.52;9.77;;;;;;;11.98;74.71;100168.69;5011640;28;20050;-73
2021/11/06 03:29:27;;;;;;;12.57;10.25;;;;;;;12.04;75.04;100181.22;5011455;28;20041;-74
2021/11/06 03:31:52;;;;;;;11.65;10.55;;;;;;;12.04;74.86;100183.88;5011370;28;20021;-74
2021/11/06 03:34:18;;;;;;;12.25;11.02;;;;;;;12.01;74.82;100181.56;5011527;28;20495;-74
2021/11/06 03:36:43;;;;;;;13.32;11.93;;;;;;;12.01;74.48;100183.38;5011489;28;20046;-74
2021/11/06 03:39:09;;;;;;;15.73;13.45;;;;;;;11.55;74.49;100105.63;5011348;28;20557;-74
2021/11/06 03:41:35;;;;;;;14.10;12.80;;;;;;;12.00;74.67;100174.63;5011482;28;20030;-74
2021/11/06 03:44:00;;;;;;;13.48;12.18;;;;;;;12.00;74.67;100171.16;5011249;28;20080;-74
2021/11/06 03:46:26;;;;;;;15.07;12.85;;;;;;;11.68;74.76;100119.94;5011492;28;20022;-74
2021/11/06 03:48:53;;;;;;;13.23;11.75;;;;;;;11.50;74.45;100092.09;5011362;28;20014;-74
2021/11/06 03:51:18;;;;;;;15.55;12.23;;;;;;;11.96;74.49;100178.59;5011479;28;20022;-74
2021/11/06 03:53:43;;;;;;;12.85;11.55;;;;;;;11.94;74.91;100177.97;5011338;28;20026;-74
2021/11/06 03:56:09;;;;;;;16.05;11.55;;;;;;;11.94;74.96;100172.66;4993788;28;20485;-74
2021/11/06 03:58:34;;;;;;;13.43;11.93;;;;;;;11.95;74.91;100178.78;5011678;28;20055;-74
2021/11/06 04:01:00;;;;;;;15.50;12.15;;;;;;;11.98;75.05;100173.97;5014885;28;20029;-74
2021/11/06 04:03:26;;;;;;;18.15;12.20;;;;;;;12.00;74.88;100181.75;5014825;28;20030;-73
2021/11/06 04:05:51;;;;;;;19.08;13.70;;;;;;;11.99;75.27;100177.44;5014848;28;20060;-74
2021/11/06 04:08:17;;;;;;;16.35;12.70;;;;;;;11.97;74.61;100179.44;4997031;28;20021;-73
2021/11/06 04:10:42;;;;;;;15.38;11.95;;;;;;;11.49;75.07;100101.00;5014753;28;20084;-74
2021/11/06 04:13:08;;;;;;;18.70;12.50;;;;;;;11.90;74.95;100175.81;5014699;28;20572;-74
2021/11/06 04:15:33;;;;;;;13.40;11.15;;;;;;;11.91;74.67;100188.88;4997094;28;20026;-74
2021/11/06 04:18:00;;;;;;;13.77;12.25;;;;;;;11.46;74.46;100125.97;5014659;28;20561;-74
2021/11/06 04:20:25;;;;;;;15.88;13.55;;;;;;;11.82;74.96;100205.75;4997029;28;20076;-74
2021/11/06 04:22:51;;;;;;;17.30;13.30;;;;;;;11.77;74.78;100195.69;5014491;28;20034;-74
2021/11/06 04:25:18;;;;;;;15.82;12.73;;;;;;;11.72;75.12;100191.84;5014526;28;20030;-74
2021/11/06 04:27:43;;;;;;;16.65;13.32;;;;;;;11.69;74.58;100206.25;5014517;28;20025;-74
2021/11/06 04:30:09;;;;;;;18.10;13.60;;;;;;;11.66;75.07;100217.16;4996831;28;20037;-73
2021/11/06 04:32:34;;;;;;;14.52;12.55;;;;;;;11.41;75.20;100171.44;5014113;28;20045;-73
2021/11/06 04:35:00;;;;;;;15.15;13.48;;;;;;;11.68;75.00;100220.47;5014057;28;20119;-74
2021/11/06 04:37:25;;;;;;;18.98;13.20;;;;;;;11.67;75.00;100207.41;5014258;28;20026;-74
2021/11/06 04:39:51;;;;;;;18.13;12.63;;;;;;;11.65;74.88;100201.47;5014090;28;20026;-74
2021/11/06 04:42:16;;;;;;;13.65;12.07;;;;;;;11.61;75.01;100200.97;5014106;28;20033;-74
2021/11/06 04:44:42;;;;;;;17.50;14.90;;;;;;;11.27;74.90;100145.69;5014071;28;20037;-74
2021/11/06 04:47:07;;;;;;;19.48;17.38;;;;;;;11.68;74.21;100209.06;4996433;28;20037;-74
2021/11/06 04:49:33;;;;;;;25.85;20.63;;;;;;;11.68;74.66;100214.34;5014284;28;20026;-74
2021/11/06 04:51:58;;;;;;;28.60;22.70;;;;;;;11.70;74.75;100205.25;4996426;28;20026;-74
2021/11/06 04:54:24;;;;;;;25.77;21.63;;;;;;;11.72;74.63;100203.25;5014004;28;20026;-74
2021/11/06 04:56:50;;;;;;;27.95;20.45;;;;;;;11.75;74.17;100207.38;5013689;28;20080;-74
2021/11/06 04:59:16;;;;;;;28.10;21.15;;;;;;;11.76;74.39;100214.34;5013844;28;20517;-74
2021/11/06 05:01:41;;;;;;;22.55;19.10;;;;;;;11.64;74.56;100208.56;5013537;28;20108;-74
2021/11/06 05:04:06;;;;;;;23.30;18.70;;;;;;;11.75;74.35;100220.63;5013479;28;20032;-73
2021/11/06 05:06:32;;;;;;;22.90;18.85;;;;;;;11.65;73.63;100197.00;5013731;28;20104;-74
2021/11/06 05:08:58;;;;;;;22.73;16.30;;;;;;;11.35;74.56;100166.00;5013527;28;20413;-73
2021/11/06 05:11:24;;;;;;;20.95;17.17;;;;;;;11.30;74.09;100158.56;4995692;28;20586;-73
2021/11/06 05:13:49;;;;;;;22.77;15.85;;;;;;;11.63;74.65;100225.44;5013509;28;20014;-73
2021/11/06 05:16:14;;;;;;;19.52;15.85;;;;;;;11.61;74.44;100237.19;5013523;28;20088;-73
2021/11/06 05:18:40;;;;;;;21.80;16.02;;;;;;;11.57;74.65;100239.34;5013600;28;20030;-74
2021/11/06 05:21:05;;;;;;;20.52;16.48;;;;;;;11.56;74.86;100250.09;5013578;28;20414;-74
2021/11/06 05:23:31;;;;;;;21.15;16.50;;;;;;;11.57;74.31;100264.94;5013526;28;20564;-74
2021/11/06 05:25:56;;;;;;;21.85;17.75;;;;;;;11.62;73.62;100263.47;5013541;28;20029;-74
2021/11/06 05:28:22;;;;;;;23.60;19.38;;;;;;;11.64;73.95;100256.19;5013239;28;20530;-74
2021/11/06 05:30:48;;;;;;;33.13;26.50;;;;;;;11.30;73.91;100197.38;5013224;28;20026;-74
2021/11/06 05:33:13;;;;;;;25.90;21.88;;;;;;;11.30;74.09;100203.50;5013159;28;20022;-73
2021/11/06 05:35:39;;;;;;;24.00;20.75;;;;;;;11.71;73.85;100269.56;5013044;28;20172;-73
2021/11/06 05:38:04;;;;;;;27.70;21.90;;;;;;;11.70;74.14;100276.69;4995668;28;20013;-74
2021/11/06 05:40:30;;;;;;;25.88;21.77;;;;;;;11.74;74.11;100287.75;5013227;28;20104;-74
2021/11/06 05:42:56;;;;;;;25.63;21.35;;;;;;;11.78;73.72;100281.97;5012995;28;20033;-74
2021/11/06 05:45:22;;;;;;;23.52;20.08;;;;;;;11.79;73.83;100290.75;5012959;28;20108;-74
2021/11/06 05:47:48;;;;;;;26.13;20.15;;;;;;;11.44;73.61;100231.09;5013025;28;20018;-74
2021/11/06 05:50:15;;;;;;;25.42;21.05;;;;;;;11.37;73.87;100217.72;5013001;28;20080;-74
2021/11/06 05:52:42;;;;;;;27.63;21.60;;;;;;;11.53;74.08;100263.63;5012842;28;20029;-74
2021/11/06 05:55:11;;;;;;;25.17;21.48;;;;;;;11.39;73.94;100228.94;5012756;28;20076;-74
2021/11/06 05:57:37;;;;;;;28.92;21.85;;;;;;;11.80;73.66;100295.03;5012695;28;20030;-74
2021/11/06 06:00:06;;;;;;;27.52;19.75;;;;;;;11.81;73.90;100296.69;5012869;28;20026;-74
2021/11/06 06:02:32;;;;;;;22.02;16.45;;;;;;;11.78;74.05;100299.69;5012387;28;20013;-74
2021/11/06 06:04:57;;;;;;;20.75;15.40;;;;;;;11.75;73.88;100294.69;5012579;28;20018;-73
2021/11/06 06:07:22;;;;;;;21.90;15.73;;;;;;;11.80;73.81;100308.28;4994934;28;20018;-73
2021/11/06 06:09:48;;;;;;;19.55;14.32;;;;;;;11.65;74.22;100291.41;5012485;28;20041;-74
2021/11/06 06:12:13;;;;;;;20.42;14.80;;;;;;;11.59;73.92;100290.25;5012547;28;20024;-74
2021/11/06 06:14:39;;;;;;;24.17;15.68;;;;;;;11.81;74.31;100317.88;5012401;28;20034;-73
2021/11/06 06:17:04;;;;;;;22.00;17.58;;;;;;;11.52;73.68;100268.09;5012338;28;20026;-74
2021/11/06 06:19:30;;;;;;;19.73;16.50;;;;;;;11.81;73.57;100332.91;5012202;28;20026;-74
2021/11/06 06:21:55;;;;;;;20.48;16.40;;;;;;;11.80;74.04;100321.50;5011425;28;20026;-73
2021/11/06 06:24:20;;;;;;;18.05;15.45;;;;;;;11.77;74.07;100313.88;4994497;28;20018;-74
2021/11/06 06:26:46;;;;;;;17.10;14.02;;;;;;;11.37;73.53;100251.25;5012391;28;20591;-74
2021/11/06 06:29:11;;;;;;;17.20;15.18;;;;;;;11.84;73.69;100322.81;5012313;28;20026;-74
2021/11/06 06:31:37;;;;;;;14.57;13.02;;;;;;;11.88;74.00;100334.72;5012288;28;20415;-74
2021/11/06 06:34:02;;;;;;;14.25;12.55;;;;;;;11.90;73.75;100337.25;5012106;28;20025;-73
2021/11/06 06:36:28;;;;;;;15.50;13.25;;;;;;;11.91;73.57;100336.25;4994470;28;20088;-73
2021/11/06 06:38:53;;;;;;;15.43;13.82;;;;;;;11.93;73.79;100328.97;5011864;28;20026;-74
2021/11/06 06:41:18;;;;;;;14.43;12.80;;;;;;;11.97;73.51;100339.03;4994137;28;20024;-74
2021/11/06 06:43:44;;;;;;;13.65;12.27;;;;;;;12.02;74.01;100330.59;5011986;28;20503;-73
2021/11/06 06:46:10;;;;;;;17.63;13.43;;;;;;;11.97;73.70;100309.94;5011882;28;20018;-74
2021/11/06 06:48:35;;;;;;;14.95;13.48;;;;;;;12.14;73.88;100342.50;5011691;28;20026;-74
2021/11/06 06:51:01;;;;;;;16.95;15.13;;;;;;;12.16;73.30;100351.09;4994144;28;20047;-74
2021/11/06 06:53:26;;;;;;;17.95;14.65;;;;;;;12.13;73.66;100338.19;4994219;28;20524;-74
2021/11/06 06:55:52;;;;;;;15.68;14.13;;;;;;;12.17;73.48;100347.44;5011815;28;20479;-74
2021/11/06 06:58:18;;;;;;;21.65;15.00;;;;;;;12.20;73.70;100355.06;5011671;28;20026;-74
2021/11/06 07:00:44;;;;;;;19.17;15.68;;;;;;;12.11;73.74;100334.06;5011852;28;20045;-74
2021/11/06 07:03:10;;;;;;;22.13;16.55;;;;;;;12.03;73.35;100332.25;5011434;28;20026;-74
2021/11/06 07:05:36;;;;;;;27.77;19.92;;;;;;;11.98;73.69;100318.69;5011602;28;20021;-74
2021/11/06 07:08:04;;;;;;;27.65;19.80;;;;;;;12.39;73.76;100377.69;5011699;28;20026;-74
2021/11/06 07:10:29;;;;;;;27.42;22.15;;;;;;;12.48;73.84;100371.38;5011487;28;20014;-74
2021/11/06 07:12:55;;;;;;;30.13;23.23;;;;;;;12.57;73.34;100365.03;5011450;28;20080;-74
2021/11/06 07:15:20;;;;;;;29.23;22.52;;;;;;;12.64;73.21;100366.03;5011484;28;20058;-73
2021/11/06 07:17:46;;;;;;;31.65;25.88;;;;;;;12.52;73.64;100340.06;5011382;28;20034;-74
2021/11/06 07:20:14;;;;;;;30.63;24.85;;;;;;;12.79;73.41;100378.56;5011566;28;20026;-73
2021/11/06 07:22:40;;;;;;;27.80;22.58;;;;;;;12.72;73.64;100350.13;5011393;28;20018;-74
2021/11/06 07:25:06;;;;;;;28.90;22.42;;;;;;;12.89;73.26;100368.59;5011339;28;20018;-74
2021/11/06 07:27:31;;;;;;;28.38;22.73;;;;;;;12.89;73.51;100355.34;5011480;28;20514;-74
2021/11/06 07:29:58;;;;;;;26.58;20.73;;;;;;;13.03;73.34;100378.47;5011417;28;20555;-74
2021/11/06 07:32:24;;;;;;;30.38;21.52;;;;;;;13.09;73.47;100369.81;5011376;28;20018;-74
2021/11/06 07:34:49;;;;;;;30.45;22.17;;;;;;;13.15;73.19;100371.78;5015339;28;20399;-74
2021/11/06 07:37:15;;;;;;;35.45;27.15;;;;;;;13.23;73.38;100377.06;5015446;28;20030;-74
2021/11/06 07:39:40;;;;;;;31.05;25.30;;;;;;;13.29;73.31;100367.56;5015200;28;20029;-74
2021/11/06 07:42:06;;;;;;;35.88;24.42;;;;;;;13.08;72.80;100320.44;5015230;28;20033;-74
2021/11/06 07:44:31;;;;;;;37.17;26.27;;;;;;;13.23;73.04;100344.41;4997562;28;20025;-74
2021/11/06 07:46:57;;;;;;;32.17;24.30;;;;;;;13.19;73.21;100338.63;4997463;28;20502;-74
2021/11/06 07:49:22;;;;;;;39.95;29.80;;;;;;;13.07;72.99;100300.22;5015033;28;20026;-74
2021/11/06 07:51:48;;;;;;;37.47;27.85;;;;;;;13.58;73.03;100370.38;5014979;28;20028;-74
2021/11/06 07:54:13;;;;;;;37.65;27.88;;;;;;;13.41;73.13;100338.84;5014905;28;20105;-74
2021/11/06 07:56:39;;;;;;;34.75;28.77;;;;;;;13.69;73.05;100379.75;5014860;28;20100;-74
2021/11/06 07:59:07;;;;;;;31.65;25.58;;;;;;;13.66;73.02;100365.03;5015109;28;20022;-74
2021/11/06 08:01:33;;;;;;;30.27;21.98;;;;;;;13.85;73.03;100376.16;5014698;28;20044;-74
2021/11/06 08:03:58;;;;;;;31.35;24.58;;;;;;;13.96;73.00;100394.31;5014509;28;20499;-74
2021/11/06 08:06:24;;;;;;;31.17;23.77;;;;;;;13.91;73.17;100370.13;5014703;28;20514;-74
2021/11/06 08:08:49;;;;;;;28.25;22.00;;;;;;;14.06;72.94;100378.13;4996917;28;20042;-74
2021/11/06 08:11:15;;;;;;;29.85;22.30;;;;;;;14.20;72.91;100385.31;4997009;28;20018;-74
2021/11/06 08:13:40;;;;;;;28.65;23.60;;;;;;;14.30;72.54;100378.75;5014853;28;20018;-74
2021/11/06 08:16:06;;;;;;;24.58;20.00;;;;;;;14.39;72.19;100368.84;4997049;28;20026;-74
2021/11/06 08:18:32;;;;;;;29.33;23.05;;;;;;;14.48;72.06;100370.44;5014294;28;20089;-74
2021/11/06 08:20:59;;;;;;;33.10;22.95;;;;;;;14.58;72.04;100372.81;5014437;28;20026;-74
2021/11/06 08:23:24;;;;;;;31.17;21.10;;;;;;;14.31;71.99;100315.81;5014362;28;20109;-74
2021/11/06 08:25:51;;;;;;;25.42;18.23;;;;;;;14.77;71.93;100384.72;5014445;28;20149;-74
2021/11/06 08:28:17;;;;;;;24.17;17.20;;;;;;;14.85;71.42;100385.44;5014557;28;20096;-74
2021/11/06 08:30:43;;;;;;;30.40;19.38;;;;;;;14.96;71.38;100381.53;5014392;28;20022;-74
2021/11/06 08:33:10;;;;;;;30.98;21.33;;;;;;;15.05;71.12;100374.25;5014242;28;20391;-73
2021/11/06 08:35:36;;;;;;;30.15;21.48;;;;;;;14.78;70.97;100320.75;4996692;28;20494;-74
2021/11/06 08:38:01;;;;;;;33.78;23.42;;;;;;;14.69;70.90;100300.59;5014202;28;20487;-74
2021/11/06 08:40:28;;;;;;;25.35;19.15;;;;;;;15.30;70.51;100374.75;5014178;28;20100;-74
2021/11/06 08:42:54;;;;;;;27.38;21.35;;;;;;;15.04;70.51;100324.75;5013812;28;20026;-74
2021/11/06 08:45:20;;;;;;;27.25;19.90;;;;;;;15.34;70.49;100355.56;5013137;28;20090;-74
2021/11/06 08:47:47;;;;;;;29.88;20.10;;;;;;;15.54;70.23;100372.53;4996505;28;20022;-74
2021/11/06 08:50:19;;;;;;;29.77;21.60;;;;;;;15.30;69.64;100327.69;5013959;28;20026;-74
2021/11/06 08:52:47;;;;;;;33.38;21.80;;;;;;;15.66;69.69;100385.41;5013816;28;20024;-74
2021/11/06 08:55:12;;;;;;;27.17;19.15;;;;;;;15.71;69.69;100389.16;5013845;28;20061;-74
2021/11/06 08:57:40;;;;;;;27.15;17.80;;;;;;;15.80;69.82;100389.84;4996257;28;20054;-74
2021/11/06 09:00:10;;;;;;;25.00;17.52;;;;;;;15.90;69.68;100387.69;5013830;28;20490;-74
2021/11/06 09:02:36;;;;;;;19.13;15.85;;;;;;;15.98;69.34;100398.19;5013545;28;20026;-74
2021/11/06 09:05:06;;;;;;;21.33;16.80;;;;;;;16.08;69.31;100397.88;5013461;28;20026;-74
2021/11/06 09:07:32;;;;;;;25.80;18.75;;;;;;;15.79;68.79;100334.94;5013530;28;20483;-74
2021/11/06 09:09:59;;;;;;;26.13;18.25;;;;;;;16.21;68.93;100382.81;4995904;28;20026;-74
2021/11/06 09:12:26;;;;;;;28.10;17.48;;;;;;;15.96;68.49;100341.63;5013389;28;20430;-74
2021/11/06 09:14:51;;;;;;;28.27;18.88;;;;;;;16.23;68.46;100358.63;5013256;28;20446;-74
2021/11/06 09:17:17;;;;;;;34.10;21.33;;;;;;;16.06;68.30;100317.31;4995677;28;20033;-74
2021/11/06 09:19:42;;;;;;;26.25;18.45;;;;;;;16.52;68.36;100382.41;5013318;28;20091;-74
2021/11/06 09:22:08;;;;;;;22.88;19.48;;;;;;;16.59;68.15;100376.31;4995699;28;20053;-74
2021/11/06 09:24:33;;;;;;;25.45;19.65;;;;;;;16.64;68.04;100385.34;5013502;28;20057;-74
2021/11/06 09:26:59;;;;;;;25.50;18.58;;;;;;;16.42;68.23;100341.13;5013541;28;20482;-74
2021/11/06 09:29:24;;;;;;;25.38;18.55;;;;;;;16.82;68.13;100392.88;5013201;28;20026;-74
2021/11/06 09:31:50;;;;;;;27.63;20.58;;;;;;;16.82;67.82;100377.69;5013350;28;20029;-74
2021/11/06 09:34:15;;;;;;;27.50;19.45;;;;;;;16.57;67.87;100319.69;5013104;28;20033;-74
2021/11/06 09:36:41;;;;;;;25.25;19.13;;;;;;;16.91;67.79;100370.34;5013160;28;20043;-74
2021/11/06 09:39:10;;;;;;;27.35;17.67;;;;;;;17.17;67.70;100385.66;5013161;28;20025;-74
2021/11/06 09:41:36;;;;;;;24.42;18.23;;;;;;;17.12;67.41;100356.88;4995395;28;20022;-74
2021/11/06 09:44:02;;;;;;;24.60;18.52;;;;;;;17.27;67.36;100362.06;4995359;28;20113;-74
2021/11/06 09:46:27;;;;;;;26.00;20.25;;;;;;;17.37;67.14;100361.69;5012875;28;20053;-74
2021/11/06 09:48:53;;;;;;;29.17;18.80;;;;;;;17.46;66.93;100374.63;5012926;28;20499;-74
2021/11/06 09:51:19;;;;;;;22.50;18.50;;;;;;;17.54;66.55;100360.25;5012924;28;20475;-74
2021/11/06 09:53:49;;;;;;;31.90;20.67;;;;;;;17.69;66.39;100365.44;5011750;28;20018;-74
2021/11/06 09:56:19;;;;;;;29.20;18.80;;;;;;;17.75;66.24;100365.47;5011723;28;20037;-74
2021/11/06 09:58:45;;;;;;;20.40;16.02;;;;;;;17.73;66.15;100348.81;5012367;28;20033;-74
2021/11/06 10:01:11;;;;;;;27.25;17.77;;;;;;;17.94;65.70;100363.84;5012266;28;20495;-74
2021/11/06 10:03:37;;;;;;;25.60;16.80;;;;;;;17.99;65.65;100363.22;5012251;28;20025;-74
2021/11/06 10:06:05;;;;;;;27.83;17.35;;;;;;;17.92;65.57;100341.84;5012653;28;20470;-74
2021/11/06 10:08:38;;;;;;;21.20;15.98;;;;;;;18.17;65.07;100354.56;4994703;28;20043;-74
2021/11/06 10:11:09;;;;;;;18.30;11.80;;;;;;;18.26;64.23;100361.34;5012335;28;20100;-74
2021/11/06 10:13:55;;;;;;;15.07;10.80;;;;;;;18.33;63.29;100348.78;4994588;28;20029;-74
2021/11/06 10:16:40;;;;;;;18.90;10.65;;;;;;;18.03;63.78;100289.63;5012250;28;20129;-74
2021/11/06 10:19:18;;;;;;;16.48;11.57;;;;;;;18.45;63.38;100340.94;5129366;27;20779;-73
2021/11/06 10:21:47;;;;;;;21.48;10.25;;;;;;;18.33;62.79;100312.19;5129496;28;20055;-74
2021/11/06 10:24:14;;;;;;;15.73;11.05;;;;;;;18.62;62.48;100359.06;5129464;27;20024;-78
2021/11/06 10:26:40;;;;;;;12.77;11.10;;;;;;;18.65;62.38;100363.16;5129264;28;20034;-78
2021/11/06 10:29:08;;;;;;;15.60;11.75;;;;;;;18.71;62.10;100363.16;5129343;27;20019;-78
2021/11/06 10:31:56;;;;;;;17.02;9.85;;;;;;;18.76;61.25;100359.84;5128983;27;20027;-78
2021/11/06 10:34:25;;;;;;;17.00;10.38;;;;;;;18.75;61.12;100342.13;5128982;28;20067;-78
2021/11/06 10:37:02;;;;;;;16.20;10.63;;;;;;;18.69;60.83;100325.09;5129242;27;20050;-78
2021/11/06 10:39:28;;;;;;;15.77;10.15;;;;;;;18.87;60.77;100356.50;5129373;28;20027;-78
2021/11/06 10:42:09;;;;;;;13.45;10.05;;;;;;;18.78;60.35;100335.53;5129294;27;20023;-78
2021/11/06 10:44:34;;;;;;;16.83;9.77;;;;;;;18.89;60.30;100358.97;5128736;27;21121;-78
2021/11/06 10:47:00;;;;;;;16.85;10.55;;;;;;;18.57;59.92;100299.16;5127720;28;20037;-78
2021/11/06 10:49:43;;;;;;;13.95;8.80;;;;;;;18.73;59.37;100328.97;5129063;28;21202;-78
2021/11/06 10:52:11;;;;;;;20.33;9.68;;;;;;;18.82;59.64;100334.09;5125015;27;20027;-78
2021/11/06 10:54:58;;;;;;;17.88;9.95;;;;;;;18.90;59.70;100345.38;5126972;27;20023;-78
2021/11/06 10:57:24;;;;;;;14.48;9.85;;;;;;;18.94;59.97;100343.91;5123441;28;20032;-78
2021/11/06 11:00:11;;;;;;;17.02;10.23;;;;;;;18.98;59.53;100344.31;5127278;28;20027;-77
2021/11/06 11:02:38;;;;;;;19.35;9.73;;;;;;;19.00;59.80;100351.09;5116544;27;20100;-78
2021/11/06 11:05:04;;;;;;;16.33;9.82;;;;;;;18.87;59.43;100327.06;5088208;28;20024;-78
2021/11/06 11:07:30;;;;;;;15.60;12.13;;;;;;;18.87;59.82;100320.91;5087889;28;20085;-77
2021/11/06 11:09:55;;;;;;;19.15;12.18;;;;;;;19.05;59.80;100345.09;5087803;28;20028;-78